Weather at Bitburg Airport

Public forecast

Using degrees Celsius for public forecast. Weather courtesy of forecast.io.

Closest aviation weather report (METAR) to Bitburg Airport

Closest report is Spangdahlem Air Base, 5.5 nm (10.2 km) ENE.

2024/07/21 09:55 (retrieved 58 minutes ago)

ETAD 210955Z AUTO 25009KT 9999 SCT100 BKN150 BKN180 BKN210 23/16 A2981 RMK AO2 SLP079 T02340164

Closest aviation forecast (TAF) to Bitburg Airport

Closest forecast is Spangdahlem Air Base, 5.5 nm (10.2 km) ENE.

2024/07/21 10:00 (retrieved 53 minutes ago)

TAF ETAD 211000Z 2110/2216 27006KT 9999 SCT060 BKN080 QNH2980INS BECMG 2113/2114 24009KT 9000 -SHRA SCT030 BKN060 QNH2981INS BECMG 2115/2116 28006KT 9999 NSW FEW060 SCT100 QNH2983INS BECMG 2118/2119 30006KT 9000 -SHRA FEW020 SCT040 QNH2987INS BECMG 2122/2123 29006KT 9999 NSW FEW010 BKN020 OVC040 QNH2992INS BECMG 2209/2210 26006KT 9999 SCT030 BKN050 QNH3005INS TX25/2116Z TN16/2204Z